INFORMACIÓN METAR y TAF
METAR FOR LIPE
ADDS - METARS form results

(1308 UTC 28 February 2021)
Data provider http://aviationweather.gov/metar/data/
 
METAR text: LIPE 281250Z 36004KT 290V060 9999 FEW045 12/01 Q1032
Conditions at: LIPE (BOLOGNA/BORGO (A, IT) observed 1250 UTC 28 February 2021
Temperature: 12.0°C (54°F)
Dewpoint: 1.0°C (34°F) [RH = 47%]
Pressure (altimeter): 30.47 inches Hg (1032.0 mb)
Winds: from the N (360 degrees) at 5 MPH (4 knots; 2.1 m/s)
Visibility: 6 or more miles (10+ km)
Ceiling: at least 12,000 feet AGL
Clouds: few clouds at 4500 feet AGL
Weather: no significant weather observed at this time

METAR text: LIPE 281220Z VRB03KT 9999 FEW045 12/02 Q1033
Conditions at: LIPE (BOLOGNA/BORGO (A, IT) observed 1220 UTC 28 February 2021
Temperature: 12.0°C (54°F)
Dewpoint: 2.0°C (36°F) [RH = 50%]
Pressure (altimeter): 30.50 inches Hg (1033.0 mb)
Winds: variable direction winds at 3 MPH (3 knots; 1.5 m/s)
Visibility: 6 or more miles (10+ km)
Ceiling: at least 12,000 feet AGL
Clouds: few clouds at 4500 feet AGL
Weather: no significant weather observed at this time

Forecast for: LIPE (BOLOGNA/BORGO (A, IT)
Text: TAF LIPE 281100Z 2812/0112 VRB05KT 9999 FEW040
Forecast period: 1200 UTC 28 February 2021 to 1200 UTC 01 March 2021
Forecast type: FROM: standard forecast or significant change
Winds: variable direction winds at 6 MPH (5 knots; 2.6 m/s)
Visibility: 6 or more miles (10+ km)
Ceiling: at least 12,000 feet AGL
Clouds: few clouds at 4000 feet AGL
Weather: no significant weather forecast for this period

 MAPA DE AEROPUERTO

 INFORMACIÓN DE PISTA